Aviation Digital Data Service (ADDS)

Output produced by METARs form (1710 UTC 29 May 2017)
found at http://www.aviationweather.gov/adds/metars/
 
EGAA 291650Z 15005KT 110V290 9999 SCT004 BKN008 15/14 Q1010
TAF EGAA 291055Z 2912/3012 07006KT 9999 FEW015 SCT030 
     TEMPO 2912/3006 6000 BKN007 
     PROB40 
     TEMPO 2912/2920 4000 RADZ BR BKN004 
     BECMG 2921/2924 23010KT 
     PROB40 2921/3003 4000 BR 
     TEMPO 3006/3012 7000 SHRA BKN012
       
EGPL 291650Z 22008KT 9999 FEW006 SCT016 13/11 Q1011
TAF AMD EGPL 291604Z 2916/2918 18008KT 9999 FEW020 SCT040 
     TEMPO 2916/2918 6000 RA BKN012 
     PROB30 
     TEMPO 2916/2918 BKN006
       
EGUB 291650Z AUTO 18002KT 5000 // BKN003/// SCT030/// 17/17 Q1011
EGKB 291650Z 19011KT 9999 VCSH SCT014 19/17 Q1012
TAF EGKB 291404Z 2915/2919 20008KT 9999 SCT020 
     PROB40 
     TEMPO 2915/2919 7000 SHRA BKN008
       
EGBB 291650Z 35003KT 4000 RADZ FEW004 BKN006 OVC008 17/17 Q1011
TAF AMD EGBB 291442Z 2914/3012 16005KT 7000 BKN010 
     TEMPO 2914/2921 4000 SHRA SCT012 
     PROB30 
     TEMPO 2914/2921 1200 +SHRA BR BKN004 
     BECMG 2921/2924 9999 FEW012 SCT020 
     PROB30 
     TEMPO 3001/3007 BKN012 
     BECMG 3003/3006 24010KT
       
EGNH 291650Z 09011KT 9999 SCT013 BKN029 16/13 Q1011
TAF EGNH 291400Z 2915/2920 09012KT 9999 FEW010 SCT015 
     TEMPO 2915/2920 4000 SHRA BR BKN003 
     TEMPO 2918/2920 VRB05KT
       
EGDM 291650Z AUTO 21004KT //// // OVC003/// 17/16 Q1011
EGHH 291650Z 18006KT 9999 SCT011 18/16 Q1011
TAF EGHH 291358Z 2915/2924 VRB05KT 9999 SCT008 
     TEMPO 2915/2921 3000 RADZ BR BKN003 
     TEMPO 2921/2924 8000 BKN006
       
EGGD 291650Z AUTO 26005KT 1700 BR OVC001/// //////CB 16/16 Q1011
TAF AMD EGGD 291546Z 2915/3012 27008KT 0300 FG BKN001 
     BECMG 2915/2918 9999 NSW SCT015 
     PROB30 
     TEMPO 2915/2918 +SHRA 
     PROB40 
     TEMPO 2918/2921 4000 SHRA BKN009 
     TEMPO 2921/3011 BKN006 
     PROB30 
     TEMPO 3000/3006 4000 BR BKN004
       
EGVN 291650Z 00000KT 9999 -RA OVC010 18/16 Q1011 NOSIG
TAF EGVN 291638Z 2918/3018 23007KT 9999 BKN012 
     PROB30 
     TEMPO 2918/2919 7000 SHRA 
     TEMPO 2919/3004 FEW012 BKN030 
     BECMG 3004/3007 BKN030 
     TEMPO 3007/3011 SCT016
       
EGAA 291650Z 15005KT 110V290 9999 SCT004 BKN008 15/14 Q1010
TAF EGAA 291055Z 2912/3012 07006KT 9999 FEW015 SCT030 
     TEMPO 2912/3006 6000 BKN007 
     PROB40 
     TEMPO 2912/2920 4000 RADZ BR BKN004 
     BECMG 2921/2924 23010KT 
     PROB40 2921/3003 4000 BR 
     TEMPO 3006/3012 7000 SHRA BKN012
       
EGAC 291650Z 13003KT 4000 -DZ BR FEW003 SCT005 BKN009 14/14 Q1010
TAF EGAC 291357Z 2915/2921 06008KT 9999 FEW007 BKN020 
     TEMPO 2915/2921 4000 -RADZ BKN007 
     PROB30 
     TEMPO 2915/2920 1400 BR BKN002
       
EGAE 291650Z 05007KT 6000 -RADZ SCT005 OVC007 14/13 Q1009
TAF EGAE 291357Z 2915/2921 07005KT 9999 BKN012 
     TEMPO 2915/2921 4000 -RADZ BKN005 
     PROB30 
     TEMPO 2915/2921 1400 BR BKN002
       
EGBB 291650Z 35003KT 4000 RADZ FEW004 BKN006 OVC008 17/17 Q1011
TAF AMD EGBB 291442Z 2914/3012 16005KT 7000 BKN010 
     TEMPO 2914/2921 4000 SHRA SCT012 
     PROB30 
     TEMPO 2914/2921 1200 +SHRA BR BKN004 
     BECMG 2921/2924 9999 FEW012 SCT020 
     PROB30 
     TEMPO 3001/3007 BKN012 
     BECMG 3003/3006 24010KT
       
EGBE 291650Z 19004KT 5000 RA BR FEW008 BKN016 18/18 Q1011
TAF EGBE 291358Z 2915/2918 16005KT 7000 BKN012 
     TEMPO 2915/2918 SHRA SCT010 
     PROB30 
     TEMPO 2915/2918 4000 +SHRA BKN006
       
EGBJ 291650Z 22002KT 9999 FEW010 SCT016 19/17 Q1011
TAF AMD EGBJ 291557Z 2915/2919 21009KT 9999 SCT012 
     TEMPO 2915/2918 6000 SHRA BKN014 
     PROB40 
     TEMPO 2915/2918 4000 +SHRA BKN004
       
EGCC 291650Z AUTO 09004KT 060V130 9999 OVC016 16/13 Q1011 TEMPO BKN014
TAF EGCC 291056Z 2912/3018 10005KT 9999 SCT020 
     TEMPO 2912/2915 7000 -RA BKN010 
     TEMPO 2915/2922 7000 SHRA BKN012 
     PROB30 
     TEMPO 2915/2922 4000 +SHRA BKN009 
     PROB30 
     TEMPO 2922/3004 5000 -RA BR BKN008 
     BECMG 3006/3009 24010KT 
     BECMG 3012/3015 30010KT
       
EGCN 291650Z 04004KT 6000 -RA BKN005 OVC009 13/13 Q1013
TAF EGCN 291102Z 2912/3012 06007KT 9999 BKN010 
     TEMPO 2912/3004 2000 RADZ SHRA BKN004 
     PROB40 2921/3004 0600 FG BKN001 
     BECMG 3006/3009 25010KT SCT010
       
EGDM 291650Z AUTO 21004KT //// // OVC003/// 17/16 Q1011
EGDR 291650Z AUTO 23011KT 9999 // SCT006/// BKN014/// 15/13 Q1013
TAF EGDR 290707Z 2909/2918 24008KT 0800 FGDZ SCT001 
     BECMG 2909/2911 9999 NSW SCT010 
     BECMG 2917/2918 2500 BR SCT004
       
EGDX 291650Z AUTO 29011KT 6000 BR BKN003/// BKN011/// 15/14 Q1012
TAF EGDX 291332Z 2915/2918 25006KT 8000 HZ BKN010 
     TEMPO 2915/2918 5000 BKN005 
     PROB30 
     TEMPO 2915/2918 4000 BR BKN004
       
EGDY 291650Z 20009KT 9999 FEW010 SCT024 19/16 Q1011 WHT BECMG SCT010 GRN
EGEC 291650Z 09012KT 6000 -RA SCT006 BKN018 13/13 Q1010
EGEO 291520Z 10005KT 070V130 9000 -RA FEW026 SCT032 BKN042 13/11 Q1012
TAF EGEO 290926Z 2909/2918 10006KT 9999 FEW025 SCT040 
     TEMPO 2911/2918 6000 RA
       
EGFF 291650Z AUTO 31013KT 4400 HZ OVC005 15/14 Q1012
TAF AMD EGFF 291638Z 2916/3012 28012KT 4000 BR BKN005 
     BECMG 2916/2918 7000 BKN018 
     TEMPO 2918/3008 3000 BR BKN006 
     PROB30 
     TEMPO 2918/3006 1400 -DZ BKN004
       
EGGD 291650Z AUTO 26005KT 1700 BR OVC001/// //////CB 16/16 Q1011
TAF AMD EGGD 291546Z 2915/3012 27008KT 0300 FG BKN001 
     BECMG 2915/2918 9999 NSW SCT015 
     PROB30 
     TEMPO 2915/2918 +SHRA 
     PROB40 
     TEMPO 2918/2921 4000 SHRA BKN009 
     TEMPO 2921/3011 BKN006 
     PROB30 
     TEMPO 3000/3006 4000 BR BKN004
       
EGGP 291650Z 11007KT 9000 BKN009 16/15 Q1011
TAF EGGP 291056Z 2912/3012 12010KT 3000 DZ BR BKN008 
     BECMG 2912/2915 9999 NSW SCT020 
     TEMPO 2915/2921 7000 SHRA BKN012 
     PROB30 
     TEMPO 2915/2921 4000 +SHRA BKN009 
     BECMG 2918/2921 25006KT 
     PROB30 
     TEMPO 2921/3003 5000 -RA BR BKN008
       
EGGW 291650Z AUTO 21004KT 180V250 9999 OVC013/// //////CB 19/17 Q1011
TAF AMD EGGW 291421Z 2914/3012 VRB05KT 9999 SCT010 BKN030 
     PROB40 
     TEMPO 2914/2921 7000 SHRA BKN009 
     BECMG 2918/2921 24010KT 
     TEMPO 2921/3006 BKN009
       
EGHC 291650Z 23009KT 6000 3000E VCFG FEW002 SCT004 BKN010 14/14 Q1013
TAF AMD EGHC 291501Z 2915/2918 27009KT 9999 SCT015 
     TEMPO 2915/2918 7000 BKN009 
     PROB30 
     TEMPO 2915/2918 4000 BR BKN003
       
EGHE 291650Z 20009KT 9999 FEW006 BKN042 15/13 Q1013
TAF EGHE 291358Z 2915/2918 25009KT 9999 FEW010 SCT015 
     PROB40 
     TEMPO 2915/2918 7000 BKN006
       
EGHH 291650Z 18006KT 9999 SCT011 18/16 Q1011
TAF EGHH 291358Z 2915/2924 VRB05KT 9999 SCT008 
     TEMPO 2915/2921 3000 RADZ BR BKN003 
     TEMPO 2921/2924 8000 BKN006
       
EGHI 291650Z 20003KT 8000 BKN005 16/14 Q1011
TAF EGHI 291358Z 2915/2922 17005KT 9999 SCT008 
     TEMPO 2915/2922 8000 BKN006 
     PROB30 
     TEMPO 2915/2920 3000 RADZ BR BKN003
       
EGHQ 291650Z 26010KT 9999 BKN017 14/12 Q1013
TAF EGHQ 291358Z 2915/2921 26008KT 4000 RADZ BR BKN008 
     BECMG 2915/2918 9999 NSW SCT020 
     PROB30 
     TEMPO 2918/2921 BKN014
       
EGJA 291650Z 27009KT 2000 BR SCT000 BKN002 13/13 Q1013
TAF EGJA 291407Z 2915/2919 28012KT 0300 FG BKN000 
     TEMPO 2915/2918 0900 
     PROB30 
     TEMPO 2915/2919 3000 TSRA BKN050CB 
     BECMG 2918/2919 9999 NSW SCT008
       
EGJB 291650Z 26013KT 9999 FEW003 SCT005 BKN009 14/13 Q1014
TAF COR EGJB 291633Z 2915/2924 28012KT 0300 FG BKN000 
     TEMPO 2915/2917 5000 VCFG BKN005 
     PROB30 
     TEMPO 2915/2920 TSRA BKN050CB 
     BECMG 2917/2920 9999 NSW SCT008 
     PROB30 
     TEMPO 2920/2924 0500 SHRA FG BKN000
       
EGJJ 291650Z 29012KT 1200 R26/P1500 -SHRA VCFG BKN000 13/13 Q1014 TEMPO 5000 SHRA BKN002
TAF EGJJ 291407Z 2915/2924 28012KT 0300 FG BKN000 
     TEMPO 2915/2918 0900 
     PROB30 
     TEMPO 2915/2920 3000 TSRA BKN050CB 
     BECMG 2918/2920 9999 NSW SCT008 
     PROB30 
     TEMPO 2920/2924 0500 SHRA FG BKN000
       
EGKA 291650Z 21006KT 0300 FG OVC003 15/15 Q1012
TAF EGKA 291404Z 2915/2919 19007KT 9999 SCT015 
     TEMPO 2915/2919 6000 SHRA BKN004 
     PROB30 2915/2919 0300 FG BKN001
       
EGKB 291650Z 19011KT 9999 VCSH SCT014 19/17 Q1012
TAF EGKB 291404Z 2915/2919 20008KT 9999 SCT020 
     PROB40 
     TEMPO 2915/2919 7000 SHRA BKN008
       
EGKK 291650Z 19007KT 170V230 9999 VCSH SCT010 18/16 Q1012
TAF EGKK 291056Z 2912/3018 20009KT 9999 SCT020 
     TEMPO 2912/3006 BKN012 
     PROB30 
     TEMPO 2912/2917 6000 SHRA BKN009 BKN045CB 
     PROB30 2920/3006 6000 BKN005 
     BECMG 3006/3009 26010KT
       
EGLC 291650Z AUTO 20012KT 160V220 9999 FEW023/// SCT030/// //////CB 22/16 Q1011
TAF EGLC 291404Z 2915/2921 21008KT 9999 SCT020 
     PROB40 
     TEMPO 2915/2921 7000 SHRA BKN012
       
EGLF 291650Z 22008KT 9999 VCSH BKN009 18/17 Q1011
TAF EGLF 291404Z 2915/2919 21006KT 9999 SCT010 BKN030 
     PROB40 
     TEMPO 2915/2919 7000 SHRA BKN009
       
EGLL 291650Z AUTO 21012KT 9999 -RA BKN009/// OVC022/// //////CB 19/17 Q1011 TEMPO SHRA FEW009 BKN018
TAF EGLL 291053Z 2912/3018 20006KT 9999 SCT025 
     PROB30 
     TEMPO 2912/2914 7000 SHRA BKN014 
     PROB30 
     TEMPO 2914/2921 5000 +SHRA TS BKN014 BKN040CB 
     BECMG 2921/2924 26010KT 
     PROB30 
     TEMPO 3001/3007 BKN012
       
EGMC 291650Z 09007KT 9999 FEW026 17/14 Q1011
TAF EGMC 291404Z 2915/2924 10009KT 9999 SCT020 
     PROB40 
     TEMPO 2915/2924 7000 SHRA BKN012 
     BECMG 2918/2921 22010KT
       
EGMD 291650Z 22013KT 9999 4000S VCFG FEW010 17/15 Q1013
TAF EGMD 291404Z 2915/2924 21009KT 9999 FEW020 
     PROB40 
     TEMPO 2915/2924 5000 BR SHRA BKN004 
     PROB30 2915/2924 0300 FG BKN001
       
EGNC 291650Z 08009KT 9999 FEW011 BKN019 13/11 Q1011
EGNH 291650Z 09011KT 9999 SCT013 BKN029 16/13 Q1011
TAF EGNH 291400Z 2915/2920 09012KT 9999 FEW010 SCT015 
     TEMPO 2915/2920 4000 SHRA BR BKN003 
     TEMPO 2918/2920 VRB05KT
       
EGNJ 291650Z 07008KT 6000 -RA OVC005 13/12 Q1012
TAF COR EGNJ 291422Z 2915/2924 07008KT 9999 FEW005 BKN008 
     TEMPO 2915/2924 4000 RA BR BKN003 
     PROB40 
     TEMPO 2921/2924 0600 FG BKN001
       
EGNM 291650Z 09007KT 1400 R14/P1500 -DZ BR SCT001 BKN002 12/12 Q1012
TAF AMD EGNM 291239Z 2912/3012 08010KT 6000 SCT010 
     PROB30 
     TEMPO 2912/2918 0300 RADZ FG BKN001 
     BECMG 2918/2921 VRB05KT 
     TEMPO 2918/3002 0300 FG BKN001 
     BECMG 3001/3004 27010KT 9999 NSW BKN015
       
TAF EGNO 290759Z 2909/2918 08010KT 9999 BKN035 
     PROB40 
     TEMPO 2909/2918 6000 SHRA BKN012
       
EGNR 291650Z 13005KT 090V160 7000 OVC008 17/15 Q1011
TAF EGNR 291358Z 2915/2920 VRB05KT 9999 SCT014 
     TEMPO 2915/2920 6000 SHRA BKN009 
     PROB30 
     TEMPO 2915/2920 4000 +SHRA BKN004
       
EGNS 291650Z 12007KT 090V150 9999 FEW003 BKN008 OVC013 14/13 Q1010 TEMPO 8000
TAF EGNS 291400Z 2915/2921 16012KT 9999 FEW003 BKN009 OVC012 
     PROB40 
     TEMPO 2918/2922 4000 BR BKN006 
     BECMG 2919/2920 23005KT 
     PROB30 
     TEMPO 2919/2921 0800 FG BKN000
       
EGNT 291650Z 11004KT 060V170 1500 BR BKN002 11/11 Q1012
TAF AMD EGNT 291557Z 2915/3012 08007KT 9999 BKN010 
     TEMPO 2915/2924 4000 RA BR BKN004 
     PROB40 
     TEMPO 2921/3003 SCT010 
     BECMG 3003/3006 23010KT SCT010
       
EGNV 291650Z 07005KT 9999 FEW009 BKN018 13/11 Q1013
TAF EGNV 291400Z 2915/2921 06006KT 9999 BKN007 
     TEMPO 2915/2921 4000 RA SCT012
       
EGNX 291650Z 06008KT 4500 -RA BKN005 14/14 Q1011
TAF AMD EGNX 291442Z 2914/3012 10006KT 5000 HZ BKN010 
     TEMPO 2914/2922 4000 SHRA BKN004 
     PROB30 
     TEMPO 2914/2921 1200 +SHRA BR 
     BECMG 2922/3001 26012KT 9999 NSW FEW012 SCT020 
     PROB30 
     TEMPO 3001/3008 BKN009
       
EGOM 291650Z AUTO 09009KT 3300 BR OVC001/// 11/10 Q1011
EGOP 291650Z AUTO 22012KT 4700 // BKN002/// BKN011/// 15/14 Q1011
EGOS 291650Z AUTO 11008KT 9999 OVC004/// 16/15 Q1010
EGOV 291650Z AUTO 20007KT 9000 HZ BKN022/// 15/13 Q1010
EGPA 291650Z 13007KT 9999 FEW020 11/06 Q1014
TAF EGPA 291401Z 2915/2924 12007KT 9999 FEW020 SCT030 
     PROB30 
     TEMPO 2915/2924 BKN010
       
EGPB 291650Z VRB02KT 9999 BKN015 10/06 Q1014 TEMPO BKN014
TAF EGPB 291401Z 2915/2924 10008KT 9999 SCT012 BKN015 
     PROB30 
     TEMPO 2915/2924 BKN009
       
EGPC 291650Z 11011KT 9999 FEW014 SCT020 11/08 Q1013
TAF EGPC 291401Z 2915/2924 12008KT 9999 FEW012 SCT030 
     PROB30 
     TEMPO 2915/2924 BKN009
       
EGPD 291650Z AUTO 16010KT 9999 SCT014/// //////TCU 11/08 Q1013 TEMPO BKN014
TAF EGPD 291059Z 2912/3012 12008KT 9999 SCT020 
     PROB30 
     TEMPO 2912/2918 BKN014 
     TEMPO 2918/3003 8000 -RA BKN010 
     PROB30 
     TEMPO 2920/3002 4000 RADZ BKN006 
     TEMPO 3002/3007 2500 BR BKN003 
     PROB30 
     TEMPO 3003/3006 0900 FG BKN001 
     TEMPO 3007/3010 6000 BKN007 
     PROB30 
     TEMPO 3010/3012 6000 SHRA
       
EGPE 291650Z 03009KT 9999 FEW015 SCT036 12/10 Q1012
TAF EGPE 291401Z 2915/2924 03006KT 9999 FEW012 SCT025 
     PROB40 
     TEMPO 2918/2921 6000 RA BKN006
       
EGPF 291650Z AUTO 06009KT 9999 -RA OVC011/// //////TCU 12/10 Q1012
TAF EGPF 291102Z 2912/3012 07010KT 9999 BKN016 
     TEMPO 2912/3012 6000 RA BKN012 
     PROB30 
     TEMPO 2919/3006 BKN004 
     BECMG 2921/2924 25005KT 
     TEMPO 3006/3012 6000 SHRA BKN009 
     BECMG 3009/3012 26015KT
       
EGPH 291650Z 06011KT 9999 FEW007 SCT016 BKN039 12/09 Q1012
TAF EGPH 291059Z 2912/3012 07009KT 9999 FEW010 SCT020 
     TEMPO 2912/3006 6000 RA BKN014 
     PROB30 
     TEMPO 2918/3006 4000 RADZ BKN006 
     BECMG 3003/3006 25010KT 
     PROB40 
     TEMPO 3010/3012 6000 SHRA BKN014
       
EGPI 291650Z 09013KT 9999 FEW003 BKN021 BKN034 12/11 Q1010
TAF EGPI 291400Z 2915/2918 09009KT 9999 FEW010 SCT025 
     TEMPO 2915/2918 6000 RA BKN012
       
EGPK 291650Z 09004KT 5000 -RADZ FEW005 SCT015 BKN022 14/12 Q1011
TAF AMD EGPK 291557Z 2915/3012 08006KT 9999 SCT020 
     TEMPO 2915/3003 4500 RADZ BR BKN010 
     PROB30 
     TEMPO 2916/3006 BKN003 
     BECMG 3006/3009 22010KT 
     BECMG 3009/3012 28015KT
       
EGPL 291650Z 22008KT 9999 FEW006 SCT016 13/11 Q1011
TAF AMD EGPL 291604Z 2916/2918 18008KT 9999 FEW020 SCT040 
     TEMPO 2916/2918 6000 RA BKN012 
     PROB30 
     TEMPO 2916/2918 BKN006
       
EGPM 291650Z 09006KT 9999 FEW015 BKN018 09/07 Q1014
TAF EGPM 291401Z 2915/2919 02007KT 9999 FEW012 SCT020 
     PROB30 
     TEMPO 2915/2919 BKN009
       
EGPN 291650Z 09008KT 9999 BKN012 11/09 Q1013
TAF EGPN 291401Z 2915/2920 08008KT 9999 FEW015 SCT020 
     PROB40 
     TEMPO 2915/2920 BKN014 
     PROB40 
     TEMPO 2917/2920 6000 RA
       
EGPO 291650Z 04004KT 9999 FEW022 13/11 Q1012
TAF EGPO 291401Z 2915/2924 10006KT 9999 FEW014 SCT030 
     PROB40 
     TEMPO 2915/2921 6000 RA BKN009
       
EGPU 291650Z 13006KT 5000 -RADZ SCT007 BKN017 12/11 Q1011
TAF EGPU 291401Z 2915/2918 14009KT 9999 SCT025 
     TEMPO 2915/2918 6000 RA BKN012 
     PROB30 
     TEMPO 2915/2918 BKN006
       
EGQK 291650Z AUTO 07007KT 9999 SCT035/// BKN070/// 16/11 Q1011
EGQL 291650Z 10010KT 9999 OVC009 11/09 Q1013 GRN
TAF EGQL 291646Z 2918/3003 09008KT 9999 BKN010 
     TEMPO 2918/3003 5000 -RADZ BKN006 
     PROB40 2918/3003 3000 -RADZ SCT002 BKN004
       
EGQM 291650Z AUTO 10007KT 9999 OVC007/// 12/10 Q1013
EGQS 291650Z 08012KT 9999 FEW035 BKN120 14/09 Q1011 BLU NOSIG
TAF EGQS 291642Z 2918/3012 09012KT 9999 FEW030 BKN045 
     TEMPO 2918/2924 7000 RA SCT024 
     PROB30 
     TEMPO 3008/3012 7000 -SHRA SCT018
       
EGSC 291650Z VRB02KT 9999 FEW028 20/17 Q1011
TAF EGSC 291404Z 2915/2919 VRB05KT 9999 BKN018 
     PROB40 
     TEMPO 2915/2919 7000 SHRA BKN012
       
EGSH 291650Z 11008KT 4000 HZ BKN002 14/13 Q1012
TAF AMD EGSH 291500Z 2915/2924 05007KT 8000 BKN010 
     PROB40 
     TEMPO 2915/2924 SHRA BKN004 
     PROB30 2918/2924 3000 BR 
     BECMG 2921/2924 23010KT
       
EGSS 291650Z AUTO 13009KT 9999 FEW007/// BKN013/// //////CB 18/16 Q1011
TAF EGSS 291056Z 2912/3018 14005KT 9999 BKN015 
     PROB40 
     TEMPO 2912/2921 7000 SHRA BKN011 
     BECMG 2918/2921 24010KT 
     TEMPO 2921/3007 BKN010
       
EGTC 291620Z 00000KT 5000 VCSH BKN011 19/17 Q1011
TAF EGTC 290916Z 2909/2918 10008KT 9999 BKN020 
     PROB40 
     TEMPO 2909/2918 7000 SHRA BKN014
       
EGTE 291650Z VRB03KT 9999 FEW007 BKN018 19/16 Q1011
TAF EGTE 291358Z 2915/2924 28009KT 9999 BKN020 
     TEMPO 2915/2924 6000 BKN008
       
EGTK 291650Z VRB01KT 4000 DZ FEW005 BKN008 17/17 Q1011
TAF EGTK 291358Z 2915/2922 VRB05KT 9999 BKN012 
     TEMPO 2915/2919 6000 SHRA BKN009 
     PROB30 
     TEMPO 2915/2919 4000 +SHRA 
     BECMG 2919/2922 SCT020
       
EGUB 291650Z AUTO 18002KT 5000 // BKN003/// SCT030/// 17/17 Q1011
EGUL 291658Z AUTO 11012KT 9999 BKN010 18/18 A2984 RMK AO2 CIG 010V022 BKN V SCT SLP108
TAF EGUL 291203Z 2912/3018 11009KT 9999 BKN020 QNH2980INS 
     TEMPO 2912/2920 9000 -RA BKN015 
     BECMG 2920/2921 23009KT 9999 BKN010 QNH2982INS 
     TEMPO 3000/3004 9000 -RA BKN007 
     BECMG 3007/3008 26012KT 9999 BKN015 OVC030 QNH2988INS 
     BECMG 3009/3010 26012G18KT 9999 SCT015 BKN030 QNH2991INS TX21/2913Z TN13/3003Z
       
EGUN 291658Z AUTO 10010KT 9999 BKN011 BKN024 18/18 A2984 RMK AO2 RAE1559 CIG 011V023 CIG 012 RWY29 SLP108 P0000 T01820182
TAF EGUN 291204Z 2912/3018 11009KT 9999 BKN020 QNH2980INS 
     TEMPO 2912/2920 9000 -RA BKN015 
     BECMG 2920/2921 23009KT 9999 BKN010 QNH2982INS 
     TEMPO 3000/3004 9000 -RA BKN007 
     BECMG 3009/3010 26012G18KT 9999 SCT015 BKN030 QNH2991INS TX21/2913Z TN13/3003Z
       
EGUW 291650Z AUTO 13010KT 9000 HZ FEW009/// BKN090/// 17/14 Q1011
EGVA 291708Z AUTO 23004KT 9999 OVC011 18/16 A2986 RMK AO2 SLP114 $
EGVN 291650Z 00000KT 9999 -RA OVC010 18/16 Q1011 NOSIG
TAF EGVN 291638Z 2918/3018 23007KT 9999 BKN012 
     PROB30 
     TEMPO 2918/2919 7000 SHRA 
     TEMPO 2919/3004 FEW012 BKN030 
     BECMG 3004/3007 BKN030 
     TEMPO 3007/3011 SCT016
       
EGVO 291650Z AUTO 22007KT 8000 HZ OVC004/// 17/16 Q1011
EGVP 291650Z AUTO 19004KT 6000 // OVC004/// 17/16 Q1011
EGWU 291650Z 22009KT 9999 -SHRA BKN010 BKN020 19/17 Q1011 GRN TEMPO 6000 SHRA GRN
TAF EGWU 291636Z 2918/3012 24005KT 9999 SCT015 BKN030 
     TEMPO 2918/2923 -SHRA SCT010 
     PROB30 
     TEMPO 2918/2920 6000 SHRA 
     BECMG 2921/2924 FEW015 SCT030 
     TEMPO 3002/3006 SCT014 
     BECMG 3006/3008 SCT022 
     BECMG 3008/3010 SCT035
       
EGXC 291650Z 08008KT 4500 RA FEW004 BKN005 OVC014 13/13 Q1011 YLO1
TAF EGXC 291615Z 2918/3012 07008KT 9999 BKN008 
     TEMPO 2918/3004 4000 -RADZ BKN004 
     PROB30 
     TEMPO 2918/2922 3000 +RA BKN040CB 
     BECMG 3007/3009 SCT015 
     BECMG 3010/3012 27015KT SCT030
       
EGXE 291650Z AUTO 14006KT 5000 BR FEW010/// BKN014/// 13/12 Q1012
EGXP 291650Z AUTO 07007KT 4500 // OVC003/// 13/13 Q1011
EGXS 291650Z AUTO 08012KT 8000 // OVC003/// 13/12 Q1012
EGXU 291650Z AUTO 13005KT 6000 // OVC009/// 13/12 Q1012
EGXV 291650Z AUTO 09007KT 5000 -SHRA OVC003/// 12/11 Q1012
EGXW 291650Z 08007KT 3000 RA BKN003 13/13 Q1011 RERA YLO2 TEMPO 4500 -RADZ YLO2
TAF EGXW 291646Z 2918/3012 07008KT 6000 BR BKN006 
     TEMPO 2918/3004 2000 -RADZ BKN002 
     BECMG 3000/3003 19005KT 
     BECMG 3004/3007 25005KT 9999 NSW SCT008 
     BECMG 3008/3011 SCT025
       
EGXZ 291650Z AUTO 11005KT 9999 -SHRA OVC010/// 13/12 Q1012
EGYD 291650Z AUTO 07007KT 6000 // OVC003/// 13/13 Q1011
EGYM 291650Z AUTO 09008KT 8000 -SHRA BKN008/// BKN090/// 15/15 Q1011
EGYP 291650Z 26004KT 9999 FEW002 BKN006 06/05 Q1022 YLO1 NOSIG
TAF EGYP 291634Z 2918/3012 VRB07KT 9999 FEW002 SCT005 
     PROB30 
     TEMPO 2918/2920 1500 BR SCT002 
     TEMPO 2920/3003 1200 BR BKN002 
     PROB30 
     TEMPO 2920/2924 0500 FG SCT001 
     BECMG 3003/3006 34015G25KT 
     TEMPO 3003/3012 SCT010 
     BECMG 3009/3012 33025G35KT
       
EGSC 291650Z VRB02KT 9999 FEW028 20/17 Q1011
TAF EGSC 291404Z 2915/2919 VRB05KT 9999 BKN018 
     PROB40 
     TEMPO 2915/2919 7000 SHRA BKN012
       
EGEC 291650Z 09012KT 6000 -RA SCT006 BKN018 13/13 Q1010
EGFF 291650Z AUTO 31013KT 4400 HZ OVC005 15/14 Q1012
TAF AMD EGFF 291638Z 2916/3012 28012KT 4000 BR BKN005 
     BECMG 2916/2918 7000 BKN018 
     TEMPO 2918/3008 3000 BR BKN006 
     PROB30 
     TEMPO 2918/3006 1400 -DZ BKN004
       
EGNC 291650Z 08009KT 9999 FEW011 BKN019 13/11 Q1011
EGLC 291650Z AUTO 20012KT 160V220 9999 FEW023/// SCT030/// //////CB 22/16 Q1011
TAF EGLC 291404Z 2915/2921 21008KT 9999 SCT020 
     PROB40 
     TEMPO 2915/2921 7000 SHRA BKN012
       
EGAC 291650Z 13003KT 4000 -DZ BR FEW003 SCT005 BKN009 14/14 Q1010
TAF EGAC 291357Z 2915/2921 06008KT 9999 FEW007 BKN020 
     TEMPO 2915/2921 4000 -RADZ BKN007 
     PROB30 
     TEMPO 2915/2920 1400 BR BKN002
       
EGXC 291650Z 08008KT 4500 RA FEW004 BKN005 OVC014 13/13 Q1011 YLO1
TAF EGXC 291615Z 2918/3012 07008KT 9999 BKN008 
     TEMPO 2918/3004 4000 -RADZ BKN004 
     PROB30 
     TEMPO 2918/2922 3000 +RA BKN040CB 
     BECMG 3007/3009 SCT015 
     BECMG 3010/3012 27015KT SCT030
       
EGBE 291650Z 19004KT 5000 RA BR FEW008 BKN016 18/18 Q1011
TAF EGBE 291358Z 2915/2918 16005KT 7000 BKN012 
     TEMPO 2915/2918 SHRA SCT010 
     PROB30 
     TEMPO 2915/2918 4000 +SHRA BKN006
       
EGTC 291620Z 00000KT 5000 VCSH BKN011 19/17 Q1011
TAF EGTC 290916Z 2909/2918 10008KT 9999 BKN020 
     PROB40 
     TEMPO 2909/2918 7000 SHRA BKN014
       
EGYD 291650Z AUTO 07007KT 6000 // OVC003/// 13/13 Q1011
EGDR 291650Z AUTO 23011KT 9999 // SCT006/// BKN014/// 15/13 Q1013
TAF EGDR 290707Z 2909/2918 24008KT 0800 FGDZ SCT001 
     BECMG 2909/2911 9999 NSW SCT010 
     BECMG 2917/2918 2500 BR SCT004
       
EGPN 291650Z 09008KT 9999 BKN012 11/09 Q1013
TAF EGPN 291401Z 2915/2920 08008KT 9999 FEW015 SCT020 
     PROB40 
     TEMPO 2915/2920 BKN014 
     PROB40 
     TEMPO 2917/2920 6000 RA
       
EGPD 291650Z AUTO 16010KT 9999 SCT014/// //////TCU 11/08 Q1013 TEMPO BKN014
TAF EGPD 291059Z 2912/3012 12008KT 9999 SCT020 
     PROB30 
     TEMPO 2912/2918 BKN014 
     TEMPO 2918/3003 8000 -RA BKN010 
     PROB30 
     TEMPO 2920/3002 4000 RADZ BKN006 
     TEMPO 3002/3007 2500 BR BKN003 
     PROB30 
     TEMPO 3003/3006 0900 FG BKN001 
     TEMPO 3007/3010 6000 BKN007 
     PROB30 
     TEMPO 3010/3012 6000 SHRA
       
EGNX 291650Z 06008KT 4500 -RA BKN005 14/14 Q1011
TAF AMD EGNX 291442Z 2914/3012 10006KT 5000 HZ BKN010 
     TEMPO 2914/2922 4000 SHRA BKN004 
     PROB30 
     TEMPO 2914/2921 1200 +SHRA BR 
     BECMG 2922/3001 26012KT 9999 NSW FEW012 SCT020 
     PROB30 
     TEMPO 3001/3008 BKN009
       
EGPH 291650Z 06011KT 9999 FEW007 SCT016 BKN039 12/09 Q1012
TAF EGPH 291059Z 2912/3012 07009KT 9999 FEW010 SCT020 
     TEMPO 2912/3006 6000 RA BKN014 
     PROB30 
     TEMPO 2918/3006 4000 RADZ BKN006 
     BECMG 3003/3006 25010KT 
     PROB40 
     TEMPO 3010/3012 6000 SHRA BKN014
       
EGTE 291650Z VRB03KT 9999 FEW007 BKN018 19/16 Q1011
TAF EGTE 291358Z 2915/2924 28009KT 9999 BKN020 
     TEMPO 2915/2924 6000 BKN008
       
EGVA 291708Z AUTO 23004KT 9999 OVC011 18/16 A2986 RMK AO2 SLP114 $
EGLF 291650Z 22008KT 9999 VCSH BKN009 18/17 Q1011
TAF EGLF 291404Z 2915/2919 21006KT 9999 SCT010 BKN030 
     PROB40 
     TEMPO 2915/2919 7000 SHRA BKN009
       
EGKK 291650Z 19007KT 170V230 9999 VCSH SCT010 18/16 Q1012
TAF EGKK 291056Z 2912/3018 20009KT 9999 SCT020 
     TEMPO 2912/3006 BKN012 
     PROB30 
     TEMPO 2912/2917 6000 SHRA BKN009 BKN045CB 
     PROB30 2920/3006 6000 BKN005 
     BECMG 3006/3009 26010KT
       
EGPF 291650Z AUTO 06009KT 9999 -RA OVC011/// //////TCU 12/10 Q1012
TAF EGPF 291102Z 2912/3012 07010KT 9999 BKN016 
     TEMPO 2912/3012 6000 RA BKN012 
     PROB30 
     TEMPO 2919/3006 BKN004 
     BECMG 2921/2924 25005KT 
     TEMPO 3006/3012 6000 SHRA BKN009 
     BECMG 3009/3012 26015KT
       
EGBJ 291650Z 22002KT 9999 FEW010 SCT016 19/17 Q1011
TAF AMD EGBJ 291557Z 2915/2919 21009KT 9999 SCT012 
     TEMPO 2915/2918 6000 SHRA BKN014 
     PROB40 
     TEMPO 2915/2918 4000 +SHRA BKN004
       
EGNR 291650Z 13005KT 090V160 7000 OVC008 17/15 Q1011
TAF EGNR 291358Z 2915/2920 VRB05KT 9999 SCT014 
     TEMPO 2915/2920 6000 SHRA BKN009 
     PROB30 
     TEMPO 2915/2920 4000 +SHRA BKN004
       
EGLL 291650Z AUTO 21012KT 9999 -RA BKN009/// OVC022/// //////CB 19/17 Q1011 TEMPO SHRA FEW009 BKN018
TAF EGLL 291053Z 2912/3018 20006KT 9999 SCT025 
     PROB30 
     TEMPO 2912/2914 7000 SHRA BKN014 
     PROB30 
     TEMPO 2914/2921 5000 +SHRA TS BKN014 BKN040CB 
     BECMG 2921/2924 26010KT 
     PROB30 
     TEMPO 3001/3007 BKN012
       
EGNJ 291650Z 07008KT 6000 -RA OVC005 13/12 Q1012
TAF COR EGNJ 291422Z 2915/2924 07008KT 9999 FEW005 BKN008 
     TEMPO 2915/2924 4000 RA BR BKN003 
     PROB40 
     TEMPO 2921/2924 0600 FG BKN001
       
EGPE 291650Z 03009KT 9999 FEW015 SCT036 12/10 Q1012
TAF EGPE 291401Z 2915/2924 03006KT 9999 FEW012 SCT025 
     PROB40 
     TEMPO 2918/2921 6000 RA BKN006
       
EGPI 291650Z 09013KT 9999 FEW003 BKN021 BKN034 12/11 Q1010
TAF EGPI 291400Z 2915/2918 09009KT 9999 FEW010 SCT025 
     TEMPO 2915/2918 6000 RA BKN012
       
EGTK 291650Z VRB01KT 4000 DZ FEW005 BKN008 17/17 Q1011
TAF EGTK 291358Z 2915/2922 VRB05KT 9999 BKN012 
     TEMPO 2915/2919 6000 SHRA BKN009 
     PROB30 
     TEMPO 2915/2919 4000 +SHRA 
     BECMG 2919/2922 SCT020
       
EGQK 291650Z AUTO 07007KT 9999 SCT035/// BKN070/// 16/11 Q1011
EGPA 291650Z 13007KT 9999 FEW020 11/06 Q1014
TAF EGPA 291401Z 2915/2924 12007KT 9999 FEW020 SCT030 
     PROB30 
     TEMPO 2915/2924 BKN010
       
EGUL 291658Z AUTO 11012KT 9999 BKN010 18/18 A2984 RMK AO2 CIG 010V022 BKN V SCT SLP108
TAF EGUL 291203Z 2912/3018 11009KT 9999 BKN020 QNH2980INS 
     TEMPO 2912/2920 9000 -RA BKN015 
     BECMG 2920/2921 23009KT 9999 BKN010 QNH2982INS 
     TEMPO 3000/3004 9000 -RA BKN007 
     BECMG 3007/3008 26012KT 9999 BKN015 OVC030 QNH2988INS 
     BECMG 3009/3010 26012G18KT 9999 SCT015 BKN030 QNH2991INS TX21/2913Z TN13/3003Z
       
EGNM 291650Z 09007KT 1400 R14/P1500 -DZ BR SCT001 BKN002 12/12 Q1012
TAF AMD EGNM 291239Z 2912/3012 08010KT 6000 SCT010 
     PROB30 
     TEMPO 2912/2918 0300 RADZ FG BKN001 
     BECMG 2918/2921 VRB05KT 
     TEMPO 2918/3002 0300 FG BKN001 
     BECMG 3001/3004 27010KT 9999 NSW BKN015
       
EGXE 291650Z AUTO 14006KT 5000 BR FEW010/// BKN014/// 13/12 Q1012
EGQL 291650Z 10010KT 9999 OVC009 11/09 Q1013 GRN
TAF EGQL 291646Z 2918/3003 09008KT 9999 BKN010 
     TEMPO 2918/3003 5000 -RADZ BKN006 
     PROB40 2918/3003 3000 -RADZ SCT002 BKN004
       
EGXU 291650Z AUTO 13005KT 6000 // OVC009/// 13/12 Q1012
EGGP 291650Z 11007KT 9000 BKN009 16/15 Q1011
TAF EGGP 291056Z 2912/3012 12010KT 3000 DZ BR BKN008 
     BECMG 2912/2915 9999 NSW SCT020 
     TEMPO 2915/2921 7000 SHRA BKN012 
     PROB30 
     TEMPO 2915/2921 4000 +SHRA BKN009 
     BECMG 2918/2921 25006KT 
     PROB30 
     TEMPO 2921/3003 5000 -RA BR BKN008
       
EGAE 291650Z 05007KT 6000 -RADZ SCT005 OVC007 14/13 Q1009
TAF EGAE 291357Z 2915/2921 07005KT 9999 BKN012 
     TEMPO 2915/2921 4000 -RADZ BKN005 
     PROB30 
     TEMPO 2915/2921 1400 BR BKN002
       
EGQS 291650Z 08012KT 9999 FEW035 BKN120 14/09 Q1011 BLU NOSIG
TAF EGQS 291642Z 2918/3012 09012KT 9999 FEW030 BKN045 
     TEMPO 2918/2924 7000 RA SCT024 
     PROB30 
     TEMPO 3008/3012 7000 -SHRA SCT018
       
EGGW 291650Z AUTO 21004KT 180V250 9999 OVC013/// //////CB 19/17 Q1011
TAF AMD EGGW 291421Z 2914/3012 VRB05KT 9999 SCT010 BKN030 
     PROB40 
     TEMPO 2914/2921 7000 SHRA BKN009 
     BECMG 2918/2921 24010KT 
     TEMPO 2921/3006 BKN009
       
EGMD 291650Z 22013KT 9999 4000S VCFG FEW010 17/15 Q1013
TAF EGMD 291404Z 2915/2924 21009KT 9999 FEW020 
     PROB40 
     TEMPO 2915/2924 5000 BR SHRA BKN004 
     PROB30 2915/2924 0300 FG BKN001
       
EGCC 291650Z AUTO 09004KT 060V130 9999 OVC016 16/13 Q1011 TEMPO BKN014
TAF EGCC 291056Z 2912/3018 10005KT 9999 SCT020 
     TEMPO 2912/2915 7000 -RA BKN010 
     TEMPO 2915/2922 7000 SHRA BKN012 
     PROB30 
     TEMPO 2915/2922 4000 +SHRA BKN009 
     PROB30 
     TEMPO 2922/3004 5000 -RA BR BKN008 
     BECMG 3006/3009 24010KT 
     BECMG 3012/3015 30010KT
       
EGYM 291650Z AUTO 09008KT 8000 -SHRA BKN008/// BKN090/// 15/15 Q1011
EGUN 291658Z AUTO 10010KT 9999 BKN011 BKN024 18/18 A2984 RMK AO2 RAE1559 CIG 011V023 CIG 012 RWY29 SLP108 P0000 T01820182
TAF EGUN 291204Z 2912/3018 11009KT 9999 BKN020 QNH2980INS 
     TEMPO 2912/2920 9000 -RA BKN015 
     BECMG 2920/2921 23009KT 9999 BKN010 QNH2982INS 
     TEMPO 3000/3004 9000 -RA BKN007 
     BECMG 3009/3010 26012G18KT 9999 SCT015 BKN030 QNH2991INS TX21/2913Z TN13/3003Z
       
EGNT 291650Z 11004KT 060V170 1500 BR BKN002 11/11 Q1012
TAF AMD EGNT 291557Z 2915/3012 08007KT 9999 BKN010 
     TEMPO 2915/2924 4000 RA BR BKN004 
     PROB40 
     TEMPO 2921/3003 SCT010 
     BECMG 3003/3006 23010KT SCT010
       
EGWU 291650Z 22009KT 9999 -SHRA BKN010 BKN020 19/17 Q1011 GRN TEMPO 6000 SHRA GRN
TAF EGWU 291636Z 2918/3012 24005KT 9999 SCT015 BKN030 
     TEMPO 2918/2923 -SHRA SCT010 
     PROB30 
     TEMPO 2918/2920 6000 SHRA 
     BECMG 2921/2924 FEW015 SCT030 
     TEMPO 3002/3006 SCT014 
     BECMG 3006/3008 SCT022 
     BECMG 3008/3010 SCT035
       
EGSH 291650Z 11008KT 4000 HZ BKN002 14/13 Q1012
TAF AMD EGSH 291500Z 2915/2924 05007KT 8000 BKN010 
     PROB40 
     TEMPO 2915/2924 SHRA BKN004 
     PROB30 2918/2924 3000 BR 
     BECMG 2921/2924 23010KT
       
EGEO 291520Z 10005KT 070V130 9000 -RA FEW026 SCT032 BKN042 13/11 Q1012
TAF EGEO 290926Z 2909/2918 10006KT 9999 FEW025 SCT040 
     TEMPO 2911/2918 6000 RA
       
EGVO 291650Z AUTO 22007KT 8000 HZ OVC004/// 17/16 Q1011
EGPK 291650Z 09004KT 5000 -RADZ FEW005 SCT015 BKN022 14/12 Q1011
TAF AMD EGPK 291557Z 2915/3012 08006KT 9999 SCT020 
     TEMPO 2915/3003 4500 RADZ BR BKN010 
     PROB30 
     TEMPO 2916/3006 BKN003 
     BECMG 3006/3009 22010KT 
     BECMG 3009/3012 28015KT
       
EGXP 291650Z AUTO 07007KT 4500 // OVC003/// 13/13 Q1011
EGPM 291650Z 09006KT 9999 FEW015 BKN018 09/07 Q1014
TAF EGPM 291401Z 2915/2919 02007KT 9999 FEW012 SCT020 
     PROB30 
     TEMPO 2915/2919 BKN009
       
EGOS 291650Z AUTO 11008KT 9999 OVC004/// 16/15 Q1010
EGKA 291650Z 21006KT 0300 FG OVC003 15/15 Q1012
TAF EGKA 291404Z 2915/2919 19007KT 9999 SCT015 
     TEMPO 2915/2919 6000 SHRA BKN004 
     PROB30 2915/2919 0300 FG BKN001
       
EGHI 291650Z 20003KT 8000 BKN005 16/14 Q1011
TAF EGHI 291358Z 2915/2922 17005KT 9999 SCT008 
     TEMPO 2915/2922 8000 BKN006 
     PROB30 
     TEMPO 2915/2920 3000 RADZ BR BKN003
       
EGMC 291650Z 09007KT 9999 FEW026 17/14 Q1011
TAF EGMC 291404Z 2915/2924 10009KT 9999 SCT020 
     PROB40 
     TEMPO 2915/2924 7000 SHRA BKN012 
     BECMG 2918/2921 22010KT
       
EGDX 291650Z AUTO 29011KT 6000 BR BKN003/// BKN011/// 15/14 Q1012
TAF EGDX 291332Z 2915/2918 25006KT 8000 HZ BKN010 
     TEMPO 2915/2918 5000 BKN005 
     PROB30 
     TEMPO 2915/2918 4000 BR BKN004
       
EGSS 291650Z AUTO 13009KT 9999 FEW007/// BKN013/// //////CB 18/16 Q1011
TAF EGSS 291056Z 2912/3018 14005KT 9999 BKN015 
     PROB40 
     TEMPO 2912/2921 7000 SHRA BKN011 
     BECMG 2918/2921 24010KT 
     TEMPO 2921/3007 BKN010
       
EGPO 291650Z 04004KT 9999 FEW022 13/11 Q1012
TAF EGPO 291401Z 2915/2924 10006KT 9999 FEW014 SCT030 
     PROB40 
     TEMPO 2915/2921 6000 RA BKN009
       
EGPB 291650Z VRB02KT 9999 BKN015 10/06 Q1014 TEMPO BKN014
TAF EGPB 291401Z 2915/2924 10008KT 9999 SCT012 BKN015 
     PROB30 
     TEMPO 2915/2924 BKN009
       
EGNV 291650Z 07005KT 9999 FEW009 BKN018 13/11 Q1013
TAF EGNV 291400Z 2915/2921 06006KT 9999 BKN007 
     TEMPO 2915/2921 4000 RA SCT012
       
EGPU 291650Z 13006KT 5000 -RADZ SCT007 BKN017 12/11 Q1011
TAF EGPU 291401Z 2915/2918 14009KT 9999 SCT025 
     TEMPO 2915/2918 6000 RA BKN012 
     PROB30 
     TEMPO 2915/2918 BKN006
       
EGXZ 291650Z AUTO 11005KT 9999 -SHRA OVC010/// 13/12 Q1012
EGOV 291650Z AUTO 20007KT 9000 HZ BKN022/// 15/13 Q1010
EGXW 291650Z 08007KT 3000 RA BKN003 13/13 Q1011 RERA YLO2 TEMPO 4500 -RADZ YLO2
TAF EGXW 291646Z 2918/3012 07008KT 6000 BR BKN006 
     TEMPO 2918/3004 2000 -RADZ BKN002 
     BECMG 3000/3003 19005KT 
     BECMG 3004/3007 25005KT 9999 NSW SCT008 
     BECMG 3008/3011 SCT025
       
TAF EGNO 290759Z 2909/2918 08010KT 9999 BKN035 
     PROB40 
     TEMPO 2909/2918 6000 SHRA BKN012
       
EGUW 291650Z AUTO 13010KT 9000 HZ FEW009/// BKN090/// 17/14 Q1011
EGPC 291650Z 11011KT 9999 FEW014 SCT020 11/08 Q1013
TAF EGPC 291401Z 2915/2924 12008KT 9999 FEW012 SCT030 
     PROB30 
     TEMPO 2915/2924 BKN009
       
EGDY 291650Z 20009KT 9999 FEW010 SCT024 19/16 Q1011 WHT BECMG SCT010 GRN